Terminal Aerodrome Forecast
Issued by NWS

Home | Current Version | Previous Version | Text Only | Print | Product List | Glossary On
Versions: 1 2 3 4 5 6 7 8 9 10 11 12 13 14 15 16 17 18 19 20
322
FTUS46 KLOX 261101 AAA
TAFPRB
TAF AMD
KPRB 261101Z 2611/2706 31008KT P6SM BKN009
     FM261500 VRB03KT P6SM BKN016
     FM262000 31008KT P6SM SKC=

USA.gov is the U.S. government's official web portal to all federal, state and local government web resources and services.